CDT,Max TemperatureF,Mean TemperatureF,Min TemperatureF,Max Dew PointF,MeanDew PointF,Min DewpointF,Max Humidity, Mean Humidity, Min Humidity, Max Sea Level PressureIn, Mean Sea Level PressureIn, Min Sea Level PressureIn, Max VisibilityMiles, Mean VisibilityMiles, Min VisibilityMiles, Max Wind SpeedMPH, Mean Wind SpeedMPH, Max Gust SpeedMPH,PrecipitationIn, CloudCover, Events, WindDirDegrees
2011-10-1,75,54,33,41,37,33,92,59,25,30.32,30.25,30.19,10,10,8,15,6,18,0.00,0,,149
2011-10-2,80,62,44,42,39,37,76,49,21,30.25,30.18,30.10,10,10,10,18,7,22,0.00,0,,176
2011-10-3,85,62,39,45,42,36,86,55,23,30.17,30.12,30.06,10,10,6,22,9,26,0.00,0,,141
2011-10-4,91,74,57,48,46,43,57,39,21,30.10,30.05,29.99,10,10,10,22,12,26,0.00,0,,173
2011-10-5,84,69,54,46,42,37,66,44,22,30.08,30.00,29.93,10,10,10,28,14,35,0.00,0,,170
2011-10-6,83,71,59,55,46,41,55,43,30,29.95,29.88,29.78,10,10,10,37,21,48,0.01,2,,158
2011-10-7,81,74,67,61,56,47,58,50,41,29.96,29.87,29.82,10,10,10,37,21,47,0.00,4,,174
2011-10-8,79,71,62,61,56,50,93,69,45,30.08,29.99,29.91,10,10,10,29,13,35,0.05,6,Rain,168
2011-10-9,80,68,55,61,58,54,100,70,39,30.12,30.06,29.96,10,10,6,30,9,35,0.46,5,Rain,170
2011-10-10,71,61,50,58,54,49,100,76,51,30.06,30.02,29.92,10,9,2,13,7,16,0.26,5,Rain,193
2011-10-11,79,64,48,58,51,48,100,68,35,29.94,29.83,29.72,10,10,6,25,10,30,0.00,2,,162
2011-10-12,71,64,56,58,54,44,100,74,47,29.84,29.74,29.68,10,8,2,28,8,33,0.14,6,Rain,318
2011-10-13,74,61,48,43,38,33,66,45,23,29.89,29.85,29.79,10,10,10,23,9,29,0.00,0,,308
2011-10-14,65,53,41,38,33,28,58,44,29,30.08,29.99,29.87,10,10,10,29,11,38,0.00,2,,314
2011-10-15,75,55,35,46,37,31,89,58,27,30.10,29.95,29.72,10,10,10,26,9,31,0.00,0,,196
2011-10-16,64,51,37,46,39,34,79,58,36,30.12,30.00,29.71,10,10,5,22,8,28,0.00,0,,357
2011-10-17,51,45,38,43,38,35,92,74,56,30.10,30.06,30.02,10,10,8,24,7,31,0.01,6,Rain,347
2011-10-18,55,43,31,38,30,23,76,52,27,30.14,30.10,30.03,10,10,10,31,14,36,0.00,1,,337
2011-10-19,51,40,29,28,24,20,85,58,30,30.19,30.14,30.10,10,10,10,26,12,33,0.00,0,,344
2011-10-20,55,39,22,31,27,20,88,65,41,30.15,30.11,30.05,10,10,10,14,5,17,0.00,1,,331
2011-10-21,73,50,27,40,33,24,85,55,25,30.14,30.10,30.05,10,9,5,13,3,16,0.00,0,,209
2011-10-22,62,51,39,45,42,37,96,74,51,30.14,30.10,30.05,10,9,5,12,4,13,T,3,,31
2011-10-23,79,56,33,45,38,34,100,63,25,30.05,29.98,29.88,10,9,1,18,5,25,0.00,0,,278
2011-10-24,79,58,36,48,39,33,85,55,24,30.13,29.98,29.76,10,10,10,23,9,29,0.00,0,,166
2011-10-25,71,59,46,49,43,35,66,53,40,30.06,29.79,29.66,10,10,10,26,15,33,0.00,0,,282
2011-10-26,51,48,44,41,37,33,82,67,52,30.17,30.12,30.05,10,10,10,20,12,24,T,5,,347
2011-10-27,57,45,32,34,28,21,82,54,26,30.21,30.17,30.13,10,10,10,15,4,18,0.00,1,,268
2011-10-28,59,44,28,31,23,17,72,48,23,30.25,30.21,30.17,10,10,8,22,6,26,0.00,0,,301
2011-10-29,68,46,23,32,27,20,88,55,22,30.18,29.99,29.81,10,10,8,23,7,30,0.00,0,,181
2011-10-30,62,47,31,35,27,18,65,42,19,30.11,30.02,29.85,10,10,10,28,12,36,T,1,,314
2011-10-31,69,46,22,36,27,19,81,52,22,30.13,30.02,29.87,10,10,10,18,6,24,0.00,0,,174